Time;durP1;ratioP1;P1;durP2;ratioP2;P2;SDS_P1;SDS_P2;PMS_P1;PMS_P2;Temp;Humidity;BMP_temperature;BMP_pressure;BME280_temperature;BME280_humidity;BME280_pressure;Samples;Min_cycle;Max_cycle;Signal;HPM_P1;HPM_P2
2022/11/09 00:02:07;;;;;;;12.70;7.25;;;21.20;69.20;;;;;;4972837;28;93535;-81
2022/11/09 00:04:33;;;;;;;12.02;7.22;;;21.10;69.20;;;;;;4972760;28;92993;-81
2022/11/09 00:07:00;;;;;;;12.48;7.13;;;21.10;69.00;;;;;;4973230;28;92227;-81
2022/11/09 00:09:26;;;;;;;12.40;7.70;;;21.10;69.30;;;;;;4972495;28;94022;-81
2022/11/09 00:11:53;;;;;;;11.90;7.00;;;21.10;69.10;;;;;;4973666;28;93274;-81
2022/11/09 00:14:19;;;;;;;11.95;6.05;;;21.10;68.90;;;;;;4973015;28;92742;-82
2022/11/09 00:16:44;;;;;;;11.70;6.28;;;21.10;68.90;;;;;;4972468;28;92249;-81
2022/11/09 00:19:12;;;;;;;9.07;6.15;;;21.10;68.90;;;;;;5004401;28;95073;-81
2022/11/09 00:21:37;;;;;;;12.13;6.55;;;21.10;68.80;;;;;;4972912;28;91629;-82
2022/11/09 00:24:03;;;;;;;12.27;7.00;;;21.10;68.90;;;;;;4973778;28;92356;-82
2022/11/09 00:26:29;;;;;;;10.70;6.82;;;21.10;69.00;;;;;;4973109;28;91923;-82
2022/11/09 00:28:54;;;;;;;12.98;7.32;;;21.10;68.90;;;;;;4973673;28;93675;-82
2022/11/09 00:31:22;;;;;;;12.20;7.22;;;21.10;68.90;;;;;;4972539;28;94792;-82
2022/11/09 00:33:50;;;;;;;11.82;6.78;;;21.00;69.00;;;;;;4971883;28;92554;-82
2022/11/09 00:36:16;;;;;;;12.40;6.97;;;21.00;68.80;;;;;;4972934;28;92042;-82
2022/11/09 00:38:42;;;;;;;9.32;6.03;;;21.00;69.00;;;;;;4972035;28;92642;-81
2022/11/09 00:41:10;;;;;;;9.98;6.25;;;21.00;69.10;;;;;;4972093;28;92397;-81
2022/11/09 00:43:35;;;;;;;11.32;6.32;;;21.00;68.90;;;;;;4970120;28;92139;-82
2022/11/09 00:46:01;;;;;;;9.65;6.47;;;21.00;68.70;;;;;;4972573;28;91306;-82
2022/11/09 00:48:27;;;;;;;11.52;6.20;;;21.00;68.90;;;;;;4969416;28;94502;-81
2022/11/09 00:50:55;;;;;;;11.02;6.65;;;21.00;69.20;;;;;;4972901;28;93273;-82
2022/11/09 00:53:21;;;;;;;10.25;5.95;;;21.00;69.00;;;;;;4971554;28;92991;-82
2022/11/09 00:55:55;;;;;;;10.63;6.80;;;21.00;69.30;;;;;;4972424;28;91907;-82
2022/11/09 00:58:21;;;;;;;10.90;6.43;;;20.90;69.10;;;;;;4972404;28;94259;-82
2022/11/09 01:00:47;;;;;;;9.90;6.20;;;20.90;69.30;;;;;;4971773;28;93501;-82
2022/11/09 01:03:12;;;;;;;11.30;5.97;;;21.00;70.10;;;;;;4973153;28;92024;-81
2022/11/09 01:05:38;;;;;;;10.80;6.20;;;20.90;69.40;;;;;;4972687;28;91907;-82
2022/11/09 01:08:05;;;;;;;9.20;5.78;;;20.90;69.40;;;;;;4972406;28;93800;-82
2022/11/09 01:10:31;;;;;;;10.30;5.90;;;20.90;69.30;;;;;;4973793;28;92994;-82
2022/11/09 01:12:56;;;;;;;10.50;6.10;;;20.90;69.30;;;;;;4972317;28;92121;-82
2022/11/09 01:15:22;;;;;;;9.35;6.38;;;20.90;69.40;;;;;;4972460;28;91986;-81
2022/11/09 01:17:47;;;;;;;11.55;6.68;;;20.90;69.50;;;;;;4971934;28;94149;-81
2022/11/09 01:20:15;;;;;;;10.85;6.35;;;20.90;69.50;;;;;;4971751;28;94188;-82
2022/11/09 01:22:40;;;;;;;8.13;5.70;;;20.80;69.50;;;;;;4972747;28;92048;-81
2022/11/09 01:25:07;;;;;;;10.75;7.03;;;20.80;69.70;;;;;;4972398;28;91990;-81
2022/11/09 01:27:32;;;;;;;11.75;6.40;;;20.80;69.60;;;;;;4971641;28;93091;-82
2022/11/09 01:29:58;;;;;;;10.68;5.90;;;20.80;69.50;;;;;;4972318;28;93294;-82
2022/11/09 01:32:23;;;;;;;10.32;5.97;;;20.90;69.60;;;;;;4971392;28;92362;-82
2022/11/09 01:34:49;;;;;;;10.65;6.72;;;20.80;69.50;;;;;;4972406;28;91226;-82
2022/11/09 01:37:15;;;;;;;10.85;6.45;;;20.80;69.70;;;;;;4971946;28;93238;-81
2022/11/09 01:39:41;;;;;;;8.75;5.78;;;20.80;69.40;;;;;;4970044;28;93129;-82
2022/11/09 01:42:06;;;;;;;11.45;6.03;;;20.80;69.40;;;;;;4971655;28;93315;-82
2022/11/09 01:44:36;;;;;;;7.72;5.25;;;20.80;69.50;;;;;;4972359;28;91996;-82
2022/11/09 01:47:13;;;;;;;12.27;6.07;;;20.70;69.20;;;;;;4974673;28;93248;-82
2022/11/09 01:49:45;;;;;;;10.02;5.95;;;20.80;69.40;;;;;;4974223;28;92164;-81
2022/11/09 01:52:33;;;;;;;10.27;5.50;;;20.80;69.40;;;;;;4975708;28;91979;-82
2022/11/09 01:55:06;;;;;;;10.65;6.63;;;20.80;69.50;;;;;;4974718;28;94388;-82
2022/11/09 01:57:37;;;;;;;8.98;5.22;;;20.70;69.30;;;;;;4974465;28;97250;-81
2022/11/09 02:00:09;;;;;;;9.93;6.18;;;20.70;69.30;;;;;;4975463;28;93113;-82
2022/11/09 02:02:36;;;;;;;8.30;5.28;;;20.70;69.30;;;;;;4974932;28;92277;-82
2022/11/09 02:05:09;;;;;;;9.32;5.45;;;20.70;69.20;;;;;;4974845;28;92372;-81
2022/11/09 02:07:36;;;;;;;10.07;5.85;;;20.70;69.20;;;;;;4974602;28;93397;-81
2022/11/09 02:10:12;;;;;;;9.18;5.20;;;20.70;69.20;;;;;;4974445;28;97206;-81
2022/11/09 02:12:39;;;;;;;10.45;5.93;;;20.70;69.30;;;;;;4974284;28;92088;-82
2022/11/09 02:15:08;;;;;;;9.48;5.38;;;20.70;69.30;;;;;;4975260;28;92059;-82
2022/11/09 02:17:35;;;;;;;7.55;5.20;;;20.70;69.20;;;;;;4973610;28;93192;-82
2022/11/09 02:20:02;;;;;;;8.48;5.53;;;20.70;69.40;;;;;;4974133;28;94281;-81
2022/11/09 02:22:28;;;;;;;8.93;5.80;;;20.70;69.20;;;;;;4974954;28;92065;-82
2022/11/09 02:24:53;;;;;;;8.90;5.65;;;20.70;69.30;;;;;;4975252;28;91766;-82
2022/11/09 02:27:20;;;;;;;8.05;5.45;;;20.70;69.30;;;;;;4974921;28;94496;-81
2022/11/09 02:29:48;;;;;;;8.55;5.47;;;20.60;69.20;;;;;;4974173;28;92803;-83
2022/11/09 02:32:18;;;;;;;9.65;5.75;;;20.60;69.50;;;;;;4974021;28;93153;-82
2022/11/09 02:34:44;;;;;;;8.55;5.18;;;20.60;69.30;;;;;;4974360;28;91968;-81
2022/11/09 02:37:10;;;;;;;7.82;5.40;;;20.60;69.40;;;;;;4974212;28;93898;-82
2022/11/09 02:39:36;;;;;;;9.93;5.50;;;20.60;69.20;;;;;;4973996;28;93946;-82
2022/11/09 02:42:05;;;;;;;9.38;5.47;;;20.60;69.20;;;;;;4974651;28;93376;-82
2022/11/09 02:44:33;;;;;;;;;;;20.60;69.40;;;;;;4974342;28;92406;-81
2022/11/09 02:46:58;;;;;;;9.65;5.38;;;20.60;69.30;;;;;;4975041;28;94023;-82
2022/11/09 02:49:24;;;;;;;7.70;5.03;;;20.60;69.30;;;;;;4974651;28;92804;-81
2022/11/09 02:51:50;;;;;;;9.93;6.07;;;20.60;69.40;;;;;;4974332;28;92316;-81
2022/11/09 02:54:15;;;;;;;8.60;5.05;;;20.60;69.30;;;;;;4974691;28;92427;-82
2022/11/09 02:56:41;;;;;;;8.88;5.28;;;20.60;69.50;;;;;;4973063;28;94048;-81
2022/11/09 02:59:06;;;;;;;10.75;6.35;;;20.60;69.40;;;;;;4973476;28;93029;-81
2022/11/09 03:01:32;;;;;;;8.38;5.28;;;20.60;69.30;;;;;;4974218;28;91967;-82
2022/11/09 03:03:57;;;;;;;9.27;5.60;;;20.60;69.40;;;;;;4973714;28;92441;-82
2022/11/09 03:06:33;;;;;;;7.70;5.13;;;20.60;69.20;;;;;;4973956;28;92681;-82
2022/11/09 03:09:10;;;;;;;8.50;5.13;;;20.60;69.20;;;;;;4974044;28;93897;-82
2022/11/09 03:11:37;;;;;;;8.13;5.43;;;20.60;69.10;;;;;;4976817;28;92147;-82
2022/11/09 03:14:03;;;;;;;8.15;4.90;;;20.60;69.20;;;;;;4973864;28;91785;-82
2022/11/09 03:16:29;;;;;;;9.45;5.28;;;20.60;69.20;;;;;;4973550;28;92619;-81
2022/11/09 03:18:55;;;;;;;7.47;4.47;;;20.60;69.20;;;;;;4974036;28;92775;-81
2022/11/09 03:21:21;;;;;;;7.70;5.00;;;20.50;69.10;;;;;;4973943;28;92911;-81
2022/11/09 03:23:48;;;;;;;7.63;5.00;;;20.60;69.10;;;;;;4974407;28;92806;-81
2022/11/09 03:26:13;;;;;;;7.85;5.05;;;20.50;69.00;;;;;;4973290;28;92559;-82
2022/11/09 03:28:39;;;;;;;6.65;4.40;;;20.60;69.10;;;;;;4973425;28;92851;-82
2022/11/09 03:31:05;;;;;;;8.85;4.97;;;20.50;69.00;;;;;;4973978;28;91953;-81
2022/11/09 03:33:31;;;;;;;7.60;5.25;;;20.60;69.20;;;;;;4971874;28;92084;-81
2022/11/09 03:35:57;;;;;;;6.63;4.75;;;20.50;69.10;;;;;;4974202;28;92996;-82
2022/11/09 03:38:22;;;;;;;7.13;4.97;;;20.50;69.10;;;;;;4973672;28;94172;-81
2022/11/09 03:40:48;;;;;;;7.78;4.63;;;20.50;69.10;;;;;;4973733;28;91902;-81
2022/11/09 03:43:16;;;;;;;9.13;4.55;;;20.50;69.30;;;;;;4973564;28;92342;-82
2022/11/09 03:45:41;;;;;;;9.95;5.45;;;20.50;69.10;;;;;;4972345;28;93620;-82
2022/11/09 03:48:07;;;;;;;9.75;5.53;;;20.50;69.20;;;;;;4973668;28;93804;-82
2022/11/09 03:50:34;;;;;;;7.60;4.78;;;20.50;69.10;;;;;;4973091;28;92357;-82
2022/11/09 03:53:00;;;;;;;8.20;4.95;;;20.50;69.00;;;;;;4973800;28;92474;-82
2022/11/09 03:55:26;;;;;;;7.40;4.63;;;20.50;69.20;;;;;;4972766;28;92992;-82
2022/11/09 03:57:52;;;;;;;8.02;5.30;;;20.50;69.10;;;;;;4972951;28;92818;-82
2022/11/09 04:00:20;;;;;;;6.47;4.32;;;20.50;69.20;;;;;;4973922;28;92526;-81
2022/11/09 04:02:47;;;;;;;7.17;4.53;;;20.50;69.20;;;;;;4973610;28;91291;-81
2022/11/09 04:05:14;;;;;;;6.68;4.63;;;20.50;69.20;;;;;;4972733;28;92591;-82
2022/11/09 04:07:40;;;;;;;9.20;5.38;;;20.50;69.30;;;;;;4972826;28;92054;-81
2022/11/09 04:10:06;;;;;;;8.45;5.07;;;20.50;69.20;;;;;;4971492;28;93198;-82
2022/11/09 04:12:32;;;;;;;7.90;5.15;;;20.50;69.20;;;;;;4970407;28;92064;-82
2022/11/09 04:14:57;;;;;;;7.32;4.80;;;20.50;69.30;;;;;;4973066;28;93093;-81
2022/11/09 04:17:23;;;;;;;7.72;4.88;;;20.50;69.30;;;;;;4972117;28;92768;-81
2022/11/09 04:19:48;;;;;;;8.10;4.97;;;20.50;69.30;;;;;;4972604;28;92450;-81
2022/11/09 04:22:14;;;;;;;7.95;5.22;;;20.50;69.30;;;;;;4973179;28;92163;-81
2022/11/09 04:24:40;;;;;;;7.03;4.68;;;20.50;69.40;;;;;;4972253;28;92286;-82
2022/11/09 04:27:05;;;;;;;7.60;4.85;;;20.40;69.30;;;;;;4973181;28;92240;-81
2022/11/09 04:29:31;;;;;;;7.50;4.63;;;20.40;69.20;;;;;;4972667;28;92111;-81
2022/11/09 04:31:57;;;;;;;7.20;4.45;;;20.40;69.10;;;;;;4972977;28;92219;-82
2022/11/09 04:34:22;;;;;;;8.55;4.88;;;20.40;69.10;;;;;;4970945;28;94140;-82
2022/11/09 04:36:48;;;;;;;6.63;4.55;;;20.40;69.20;;;;;;4972458;28;93833;-81
2022/11/09 04:39:13;;;;;;;6.63;4.20;;;20.40;69.10;;;;;;4972520;28;92025;-81
2022/11/09 04:41:39;;;;;;;6.75;4.63;;;20.40;69.10;;;;;;4972386;28;92006;-81
2022/11/09 04:44:04;;;;;;;7.22;4.55;;;20.40;69.30;;;;;;4972289;28;93425;-81
2022/11/09 04:46:30;;;;;;;6.57;4.53;;;20.40;69.10;;;;;;4972390;28;92863;-82
2022/11/09 04:48:56;;;;;;;8.07;4.85;;;20.40;69.20;;;;;;4972814;28;92153;-81
2022/11/09 04:51:21;;;;;;;5.50;3.67;;;20.40;69.20;;;;;;4972583;28;91242;-81
2022/11/09 04:53:47;;;;;;;7.88;4.85;;;20.40;69.60;;;;;;5004364;28;95826;-81
2022/11/09 04:56:13;;;;;;;8.23;5.15;;;20.40;69.30;;;;;;4971855;28;93738;-81
2022/11/09 04:58:39;;;;;;;7.07;4.32;;;20.40;69.30;;;;;;4971254;28;93536;-81
2022/11/09 05:01:08;;;;;;;8.10;4.25;;;20.40;69.40;;;;;;4972150;28;93688;-82
2022/11/09 05:03:34;;;;;;;6.45;4.35;;;20.40;69.50;;;;;;4971864;28;93223;-82
2022/11/09 05:06:00;;;;;;;8.00;4.47;;;20.40;69.30;;;;;;4970905;28;93113;-81
2022/11/09 05:08:26;;;;;;;5.68;3.95;;;20.40;69.30;;;;;;4972676;28;92281;-81
2022/11/09 05:10:56;;;;;;;8.85;4.65;;;20.40;69.30;;;;;;4972501;28;91939;-82
2022/11/09 05:13:22;;;;;;;5.45;4.18;;;20.40;69.40;;;;;;4972161;28;93113;-82
2022/11/09 05:15:47;;;;;;;6.40;4.07;;;20.40;69.40;;;;;;4971835;28;93025;-82
2022/11/09 05:18:13;;;;;;;7.00;4.57;;;20.40;69.40;;;;;;4972375;28;91936;-82
2022/11/09 05:20:39;;;;;;;5.93;4.20;;;20.40;69.30;;;;;;4972932;28;92183;-82
2022/11/09 05:25:48;;;;;;;5.80;3.97;;;20.40;69.20;;;;;;4975333;28;92900;-82
2022/11/09 05:28:14;;;;;;;7.20;4.32;;;20.30;69.10;;;;;;4975225;28;91952;-81
2022/11/09 05:30:40;;;;;;;6.15;4.32;;;20.30;69.00;;;;;;4975966;28;92632;-81
2022/11/09 05:33:05;;;;;;;6.15;4.18;;;20.30;69.10;;;;;;4975477;28;93223;-82
2022/11/09 05:35:32;;;;;;;7.07;4.38;;;20.30;69.10;;;;;;4975340;28;92309;-82
2022/11/09 05:37:58;;;;;;;6.93;4.03;;;20.30;69.20;;;;;;4975393;28;92262;-82
2022/11/09 05:40:23;;;;;;;6.00;3.92;;;20.30;69.00;;;;;;4975272;28;91386;-82
2022/11/09 05:42:49;;;;;;;6.47;3.70;;;20.30;69.00;;;;;;4974738;28;93530;-82
2022/11/09 05:45:16;;;;;;;5.28;3.92;;;20.30;69.20;;;;;;4975164;28;93345;-81
2022/11/09 05:47:43;;;;;;;6.43;4.57;;;20.30;69.20;;;;;;4974989;28;92994;-81
2022/11/09 05:50:12;;;;;;;5.93;3.83;;;20.30;69.10;;;;;;4974995;28;91943;-82
2022/11/09 05:52:38;;;;;;;5.63;3.67;;;20.30;69.10;;;;;;4974321;28;96738;-81
2022/11/09 05:55:05;;;;;;;5.53;3.72;;;20.30;69.10;;;;;;4972343;28;92876;-81
2022/11/09 05:57:31;;;;;;;7.00;4.20;;;20.30;69.20;;;;;;4974929;28;92458;-81
2022/11/09 05:59:56;;;;;;;4.90;3.78;;;20.30;69.10;;;;;;4975513;28;91989;-82
2022/11/09 06:02:22;;;;;;;6.47;4.32;;;20.30;68.90;;;;;;4974265;28;94192;-82
2022/11/09 06:04:48;;;;;;;6.30;4.05;;;20.30;69.10;;;;;;4975170;28;93817;-82
2022/11/09 06:07:14;;;;;;;5.53;4.03;;;20.30;69.10;;;;;;4974783;28;92180;-82
2022/11/09 06:09:39;;;;;;;5.40;3.80;;;20.30;69.00;;;;;;4974477;28;91995;-82
2022/11/09 06:12:06;;;;;;;5.97;3.88;;;20.30;69.20;;;;;;4975595;28;93736;-81
2022/11/09 06:14:31;;;;;;;4.95;3.83;;;20.30;69.20;;;;;;4976593;28;94359;-81
2022/11/09 06:16:57;;;;;;;4.80;3.90;;;20.30;69.20;;;;;;4975136;28;92107;-81
2022/11/09 06:19:22;;;;;;;5.15;3.55;;;20.30;69.10;;;;;;4974828;28;92045;-81
2022/11/09 06:21:48;;;;;;;5.60;3.80;;;20.30;69.20;;;;;;4974326;28;92995;-82
2022/11/09 06:24:13;;;;;;;6.55;4.15;;;20.20;69.10;;;;;;4975074;28;92893;-82
2022/11/09 06:26:39;;;;;;;6.07;4.15;;;20.20;69.20;;;;;;4974645;28;92050;-81
2022/11/09 06:29:05;;;;;;;5.93;4.05;;;20.20;69.20;;;;;;4975264;28;91575;-82
2022/11/09 06:31:30;;;;;;;4.97;3.55;;;20.20;69.40;;;;;;4973846;28;95055;-82
2022/11/09 06:33:56;;;;;;;5.72;4.25;;;20.20;69.30;;;;;;4973340;28;92808;-82
2022/11/09 06:36:21;;;;;;;5.18;3.80;;;20.20;69.20;;;;;;4974057;28;93158;-82
2022/11/09 06:38:50;;;;;;;4.90;3.20;;;20.20;69.10;;;;;;4975104;28;92033;-82
2022/11/09 06:41:15;;;;;;;5.75;4.05;;;20.20;69.20;;;;;;4973570;28;92884;-82
2022/11/09 06:43:41;;;;;;;5.95;3.72;;;20.20;69.20;;;;;;4974833;28;93162;-82
2022/11/09 06:46:09;;;;;;;5.30;3.80;;;20.20;69.40;;;;;;4974185;28;92355;-82
2022/11/09 06:48:36;;;;;;;4.82;3.67;;;20.20;69.20;;;;;;4974263;28;91944;-82
2022/11/09 06:51:02;;;;;;;5.65;3.90;;;20.20;69.20;;;;;;4974647;28;93299;-82
2022/11/09 06:53:30;;;;;;;5.05;3.70;;;20.20;69.20;;;;;;4974494;28;92195;-82
2022/11/09 06:56:02;;;;;;;5.45;3.97;;;20.10;69.10;;;;;;4974359;28;92178;-82
2022/11/09 06:58:29;;;;;;;5.13;3.92;;;20.20;69.20;;;;;;5005635;28;92796;-82
2022/11/09 07:00:54;;;;;;;6.03;3.92;;;20.20;69.20;;;;;;5004570;28;97594;-82
2022/11/09 07:03:21;;;;;;;5.00;3.72;;;20.20;69.20;;;;;;4974055;28;93738;-82
2022/11/09 07:05:48;;;;;;;5.15;3.65;;;20.20;69.20;;;;;;4974786;28;92428;-82
2022/11/09 07:08:14;;;;;;;5.70;3.63;;;20.20;69.00;;;;;;4972442;28;91986;-82
2022/11/09 07:10:40;;;;;;;4.80;3.17;;;20.20;69.10;;;;;;4975708;28;93662;-82
2022/11/09 07:13:07;;;;;;;5.45;3.53;;;20.20;69.00;;;;;;4974169;28;92281;-82
2022/11/09 07:15:33;;;;;;;4.88;3.50;;;20.20;69.10;;;;;;4974316;28;92292;-83
2022/11/09 07:18:00;;;;;;;5.65;4.03;;;20.20;69.30;;;;;;4974951;28;91216;-82
2022/11/09 07:20:27;;;;;;;4.88;3.53;;;20.20;69.70;;;;;;4974420;28;93386;-82
2022/11/09 07:22:52;;;;;;;5.65;3.95;;;20.20;69.60;;;;;;4973747;28;92877;-81
2022/11/09 07:25:18;;;;;;;4.80;3.40;;;20.20;69.40;;;;;;4979719;28;93033;-82
2022/11/09 07:27:44;;;;;;;7.95;4.20;;;20.30;69.50;;;;;;4973641;28;91899;-82
2022/11/09 07:30:10;;;;;;;6.25;3.50;;;20.30;69.70;;;;;;4973353;28;93134;-82
2022/11/09 07:32:37;;;;;;;5.13;3.78;;;20.30;69.80;;;;;;4973438;28;94558;-82
2022/11/09 07:35:03;;;;;;;5.15;3.67;;;20.30;70.30;;;;;;4972212;28;92442;-82
2022/11/09 07:37:29;;;;;;;6.15;3.70;;;20.30;70.30;;;;;;4973702;28;91907;-83
2022/11/09 07:39:55;;;;;;;7.72;3.95;;;20.40;70.30;;;;;;4971521;28;96073;-82
2022/11/09 07:42:21;;;;;;;5.28;3.33;;;20.40;70.70;;;;;;4975426;28;92303;-81
2022/11/09 07:44:46;;;;;;;5.00;3.63;;;20.40;70.40;;;;;;4974719;28;92001;-82
2022/11/09 07:47:12;;;;;;;10.48;3.63;;;20.40;70.30;;;;;;4976666;28;91962;-82
2022/11/09 07:49:38;;;;;;;5.20;3.65;;;20.50;70.60;;;;;;5004301;28;97571;-82
2022/11/09 07:52:04;;;;;;;5.75;3.28;;;20.50;71.50;;;;;;4973551;28;93342;-82
2022/11/09 07:54:29;;;;;;;5.80;3.40;;;20.50;70.70;;;;;;4974250;28;101002;-82
2022/11/09 07:56:55;;;;;;;6.55;3.17;;;20.50;70.60;;;;;;4974904;28;91991;-82
2022/11/09 07:59:21;;;;;;;6.93;3.80;;;20.60;70.70;;;;;;4971767;28;92549;-82
2022/11/09 08:01:46;;;;;;;5.35;3.33;;;20.60;70.30;;;;;;4971428;28;92219;-82
2022/11/09 08:04:13;;;;;;;6.30;3.88;;;20.70;70.30;;;;;;4971962;28;91975;-81
2022/11/09 08:06:39;;;;;;;6.43;3.33;;;20.70;70.50;;;;;;4973749;28;91418;-82
2022/11/09 08:09:04;;;;;;;7.25;3.83;;;20.70;70.40;;;;;;4974037;28;93537;-82
2022/11/09 08:11:30;;;;;;;8.32;3.33;;;20.70;69.90;;;;;;4972788;28;93243;-83
2022/11/09 08:13:56;;;;;;;8.52;4.07;;;20.70;70.20;;;;;;4972298;28;93461;-82
2022/11/09 08:16:22;;;;;;;10.85;4.38;;;20.80;70.30;;;;;;4973467;28;92505;-82
2022/11/09 08:18:49;;;;;;;24.40;6.15;;;20.80;69.70;;;;;;4972881;28;96709;-83
2022/11/09 08:21:14;;;;;;;24.98;5.88;;;20.90;68.50;;;;;;4974150;28;92902;-82
2022/11/09 08:23:40;;;;;;;18.85;6.20;;;21.00;68.10;;;;;;4973742;28;92384;-82
2022/11/09 08:26:06;;;;;;;18.92;5.22;;;20.90;68.70;;;;;;4973327;28;91962;-82
2022/11/09 08:28:32;;;;;;;19.20;5.72;;;20.90;68.70;;;;;;4936473;28;93117;-81
2022/11/09 08:31:01;;;;;;;15.65;5.80;;;21.00;67.90;;;;;;4986614;28;93451;-81
2022/11/09 08:33:29;;;;;;;19.23;5.60;;;20.90;68.30;;;;;;4971232;28;92504;-81
2022/11/09 08:35:55;;;;;;;18.90;5.70;;;20.80;68.80;;;;;;4973421;28;92247;-81
2022/11/09 08:38:21;;;;;;;18.45;5.85;;;20.80;68.60;;;;;;4968291;28;96359;-81
2022/11/09 08:40:47;;;;;;;21.17;6.25;;;20.80;68.40;;;;;;4970962;28;93648;-81
2022/11/09 08:43:12;;;;;;;19.80;6.95;;;20.90;68.80;;;;;;4972081;28;92185;-81
2022/11/09 08:45:39;;;;;;;18.55;6.78;;;20.90;68.70;;;;;;4972052;28;91962;-81
2022/11/09 08:48:07;;;;;;;17.27;6.20;;;20.90;68.70;;;;;;4972690;28;92460;-81
2022/11/09 08:50:34;;;;;;;25.67;6.90;;;20.90;68.90;;;;;;4971704;28;96263;-82
2022/11/09 08:53:02;;;;;;;19.55;5.75;;;20.90;68.80;;;;;;4972841;28;91973;-82
2022/11/09 08:55:28;;;;;;;21.40;5.65;;;20.90;69.00;;;;;;4973665;28;91288;-82
2022/11/09 08:57:58;;;;;;;20.95;6.43;;;20.90;69.00;;;;;;4975793;28;93531;-83
2022/11/09 09:00:25;;;;;;;27.17;6.20;;;21.00;68.90;;;;;;4976011;28;92947;-81
2022/11/09 09:02:50;;;;;;;19.40;5.97;;;21.00;68.10;;;;;;4990387;28;92814;-82
2022/11/09 09:05:17;;;;;;;19.70;5.72;;;21.10;68.20;;;;;;4976177;28;92012;-82
2022/11/09 09:07:42;;;;;;;26.00;6.60;;;21.00;68.80;;;;;;4975008;28;93068;-82
2022/11/09 09:10:08;;;;;;;20.23;6.35;;;21.00;68.90;;;;;;4974809;28;92193;-82
2022/11/09 09:12:34;;;;;;;18.23;6.18;;;21.00;68.80;;;;;;4975342;28;92055;-81
2022/11/09 09:15:00;;;;;;;16.55;6.10;;;20.90;69.10;;;;;;4974976;28;92361;-82
2022/11/09 09:17:26;;;;;;;18.15;6.65;;;20.90;69.20;;;;;;4975871;28;92789;-82
2022/11/09 09:19:52;;;;;;;24.30;7.22;;;20.90;69.30;;;;;;4975937;28;92874;-82
2022/11/09 09:22:18;;;;;;;22.40;6.85;;;20.90;70.20;;;;;;4975279;28;92350;-81
2022/11/09 09:24:44;;;;;;;19.13;6.88;;;20.90;69.50;;;;;;4975957;28;92218;-82
2022/11/09 09:27:09;;;;;;;18.58;6.70;;;20.90;69.40;;;;;;4975590;28;93663;-82
2022/11/09 09:29:35;;;;;;;21.30;6.70;;;21.00;70.30;;;;;;5007543;28;96990;-82
2022/11/09 09:32:00;;;;;;;24.35;7.25;;;21.00;69.40;;;;;;4977476;28;92142;-83
2022/11/09 09:34:26;;;;;;;23.13;7.15;;;21.10;69.40;;;;;;4976425;28;91929;-82
2022/11/09 09:36:52;;;;;;;22.73;7.55;;;21.20;68.60;;;;;;4977499;28;93542;-83
2022/11/09 09:39:18;;;;;;;18.45;6.53;;;21.20;68.80;;;;;;4978004;28;92103;-82
2022/11/09 09:41:57;;;;;;;24.33;6.70;;;21.10;69.10;;;;;;4975408;28;92608;-82
2022/11/09 09:44:48;;;;;;;19.50;6.68;;;21.10;69.20;;;;;;4976151;28;91272;-82
2022/11/09 09:47:16;;;;;;;19.30;6.72;;;21.10;69.50;;;;;;4976801;28;93872;-81
2022/11/09 09:50:11;;;;;;;15.57;5.97;;;21.10;69.70;;;;;;4975240;28;92949;-82
2022/11/09 09:52:58;;;;;;;17.05;6.38;;;21.10;69.30;;;;;;4973487;28;93782;-82
2022/11/09 09:55:37;;;;;;;16.92;5.90;;;21.10;69.40;;;;;;4975164;28;93072;-82
2022/11/09 09:58:33;;;;;;;16.90;5.97;;;21.10;69.40;;;;;;4974724;28;93528;-81
2022/11/09 10:01:06;;;;;;;20.75;6.57;;;21.10;69.00;;;;;;4993051;28;93203;-82
2022/11/09 10:03:32;;;;;;;19.30;6.45;;;21.20;69.20;;;;;;4991401;28;92152;-82
2022/11/09 10:06:43;;;;;;;14.30;5.43;;;21.20;69.00;;;;;;4993035;28;92013;-82
2022/11/09 10:09:45;;;;;;;16.17;6.70;;;21.20;69.30;;;;;;4991404;28;98119;-82
2022/11/09 10:12:39;;;;;;;16.10;6.45;;;21.20;69.40;;;;;;4991843;28;96151;-82
2022/11/09 10:15:25;;;;;;;22.38;6.32;;;21.20;70.20;;;;;;4989882;28;92103;-82
2022/11/09 10:18:12;;;;;;;19.00;6.45;;;21.20;69.60;;;;;;4990234;28;92045;-82
2022/11/09 10:20:37;;;;;;;17.33;5.88;;;21.20;69.60;;;;;;4992036;28;94490;-82
2022/11/09 10:23:33;;;;;;;18.75;5.93;;;21.20;69.70;;;;;;4992065;28;94032;-82
2022/11/09 10:26:03;;;;;;;20.90;5.75;;;21.40;69.40;;;;;;4991397;28;92206;-81
2022/11/09 10:28:29;;;;;;;18.58;5.75;;;21.50;69.50;;;;;;4992230;28;92676;-82
2022/11/09 10:30:57;;;;;;;18.27;5.82;;;21.50;69.30;;;;;;4992058;28;93504;-82
2022/11/09 10:33:24;;;;;;;22.55;7.05;;;21.60;69.40;;;;;;4989080;28;92185;-82
2022/11/09 10:36:16;;;;;;;14.75;5.60;;;21.70;69.00;;;;;;4993263;28;92222;-82
2022/11/09 10:38:47;;;;;;;21.20;6.88;;;21.80;69.00;;;;;;4973592;28;91311;-82
2022/11/09 10:41:45;;;;;;;18.42;5.30;;;21.80;67.80;;;;;;4974476;28;93007;-82
2022/11/09 10:44:14;;;;;;;17.88;5.63;;;21.80;68.70;;;;;;4975285;28;92663;-82
2022/11/09 10:47:01;;;;;;;19.83;5.75;;;21.80;68.30;;;;;;4974168;28;92918;-81
2022/11/09 10:49:27;;;;;;;16.63;5.50;;;21.70;67.70;;;;;;4974200;28;92004;-81
2022/11/09 10:51:52;;;;;;;16.10;5.53;;;21.50;68.50;;;;;;4973909;28;93048;-81
2022/11/09 10:54:25;;;;;;;19.77;5.72;;;21.40;68.80;;;;;;4974597;28;92583;-81
2022/11/09 10:57:15;;;;;;;18.77;6.28;;;21.30;69.20;;;;;;4972259;28;92018;-81
2022/11/09 10:59:51;;;;;;;20.17;5.50;;;21.20;69.60;;;;;;4974082;28;92689;-81
2022/11/09 11:02:41;;;;;;;17.55;5.25;;;21.20;69.60;;;;;;4973914;28;93483;-81
2022/11/09 11:05:06;;;;;;;16.85;5.93;;;21.10;69.30;;;;;;4973948;28;92848;-81
2022/11/09 11:07:34;;;;;;;14.13;5.50;;;21.10;69.50;;;;;;4974591;28;92020;-81
2022/11/09 11:10:16;;;;;;;17.55;5.50;;;21.10;69.60;;;;;;4973925;28;94269;-81
2022/11/09 11:13:16;;;;;;;11.82;4.57;;;21.00;69.40;;;;;;4971097;28;94943;-81
2022/11/09 11:15:42;;;;;;;14.60;5.32;;;21.00;69.30;;;;;;4972903;28;95330;-81
2022/11/09 11:18:23;;;;;;;20.25;4.80;;;21.00;69.20;;;;;;4974526;28;92383;-81
2022/11/09 11:21:13;;;;;;;16.00;6.32;;;21.00;69.10;;;;;;4974446;28;92502;-81
2022/11/09 11:23:39;;;;;;;16.77;5.15;;;21.00;69.60;;;;;;4969643;28;92477;-83
2022/11/09 11:26:26;;;;;;;11.43;5.20;;;21.10;69.00;;;;;;4971020;28;93126;-83
2022/11/09 11:28:59;;;;;;;13.80;5.25;;;21.20;69.10;;;;;;4962928;28;92204;-84
2022/11/09 11:31:25;;;;;;;13.32;5.30;;;21.30;68.90;;;;;;4971241;28;91367;-84
2022/11/09 11:33:51;;;;;;;17.30;5.80;;;21.40;68.80;;;;;;4970703;28;93327;-82
2022/11/09 11:36:20;;;;;;;15.65;5.30;;;21.50;68.90;;;;;;4973892;28;93343;-85
2022/11/09 11:38:58;;;;;;;16.27;5.50;;;21.70;68.50;;;;;;4957059;28;92996;-85
2022/11/09 11:41:45;;;;;;;14.38;4.93;;;21.80;68.10;;;;;;4974626;28;92078;-85
2022/11/09 11:44:35;;;;;;;12.45;5.60;;;22.00;68.10;;;;;;4974988;28;93574;-85
2022/11/09 11:47:23;;;;;;;12.30;4.60;;;22.10;67.80;;;;;;4970279;28;93451;-85
2022/11/09 11:50:21;;;;;;;13.83;4.37;;;22.30;67.50;;;;;;4973747;28;92129;-85
2022/11/09 11:53:13;;;;;;;12.57;4.35;;;22.30;65.70;;;;;;4972832;28;92051;-86
2022/11/09 11:56:18;;;;;;;18.58;5.18;;;22.40;65.80;;;;;;4957096;28;96514;-85
2022/11/09 11:59:01;;;;;;;21.33;5.18;;;22.40;65.40;;;;;;4970115;28;93401;-84
2022/11/09 12:01:27;;;;;;;21.60;5.00;;;22.50;66.20;;;;;;4970353;28;92044;-84
2022/11/09 12:04:11;;;;;;;19.13;5.15;;;22.50;66.60;;;;;;4976666;28;91893;-86
2022/11/09 12:07:06;;;;;;;17.23;5.20;;;22.60;66.50;;;;;;5007167;28;95595;-84
2022/11/09 12:10:13;;;;;;;27.58;5.93;;;22.60;66.50;;;;;;4974118;28;94086;-84
2022/11/09 12:12:55;;;;;;;19.35;4.93;;;22.50;66.60;;;;;;4971995;28;92365;-84
2022/11/09 12:15:36;;;;;;;22.45;4.75;;;22.40;66.40;;;;;;4973476;28;92071;-84
2022/11/09 12:18:23;;;;;;;18.15;5.30;;;22.40;66.50;;;;;;4973086;28;93879;-84
2022/11/09 12:20:56;;;;;;;20.35;4.32;;;22.40;66.40;;;;;;4972563;28;97078;-84
2022/11/09 12:24:03;;;;;;;13.48;4.65;;;22.30;66.60;;;;;;4972841;28;92022;-84
2022/11/09 12:26:51;;;;;;;17.55;4.55;;;22.20;66.80;;;;;;4934209;28;91337;-84
2022/11/09 12:29:28;;;;;;;17.63;4.95;;;22.20;66.70;;;;;;4933164;28;92779;-84
2022/11/09 12:32:34;;;;;;;14.35;4.32;;;22.20;66.60;;;;;;4932849;28;92299;-85
2022/11/09 12:35:11;;;;;;;14.43;4.03;;;22.10;66.80;;;;;;4867173;28;93454;-84
2022/11/09 12:37:43;;;;;;;14.95;4.65;;;22.20;67.10;;;;;;4866157;28;92846;-84
2022/11/09 12:40:22;;;;;;;10.18;3.90;;;22.10;67.30;;;;;;4870236;28;92731;-84
2022/11/09 12:43:11;;;;;;;19.65;4.50;;;22.10;67.20;;;;;;4870415;28;93024;-85
2022/11/09 12:45:38;;;;;;;21.08;5.95;;;22.20;67.00;;;;;;4883135;28;92440;-85
2022/11/09 12:48:22;;;;;;;15.65;4.05;;;22.20;66.60;;;;;;4867104;28;92067;-84
2022/11/09 12:50:48;;;;;;;21.40;4.68;;;22.20;66.40;;;;;;4861931;28;98187;-84
2022/11/09 12:53:16;;;;;;;13.15;4.40;;;22.20;66.50;;;;;;4880139;28;91764;-83
2022/11/09 12:55:47;;;;;;;16.77;4.38;;;22.10;66.70;;;;;;4884531;28;92370;-84
2022/11/09 12:58:27;;;;;;;18.23;4.68;;;22.10;66.90;;;;;;4865051;28;93325;-84
2022/11/09 13:00:59;;;;;;;15.52;4.20;;;22.10;67.30;;;;;;4862099;28;93542;-84